Messwerte Homestead

Temperatur

Temperatur
°C
1575856800 21.00 21.00 22
1575860400 22.00 22.00 22
1575864000 23.00 23.00 21
1575867600 0.00 0.00 21
1575871200 1.00 1.00 20
1575874800 2.00 2.00 19
1575878400 3.00 3.00 18
1575882000 4.00 4.00 18
1575885600 5.00 5.00 18
1575889200 6.00 6.00 18
1575892800 7.00 7.00 18
1575896400 8.00 8.00 20
1575900000 9.00 9.00 25
1575903600 10.00 10.00 27
1575907200 11.00 11.00
1575910800 12.00 12.00
1575914400 13.00 13.00
1575918000 14.00 14.00
1575921600 15.00 15.00 27
1575925200 16.00 16.00 26
1575928800 17.00 17.00 26
1575932400 18.00 18.00 24
1575936000 19.00 19.00 23
1575939600 20.00 20.00

Wir danken unserem Partner:

Aktuellste Messwerte

Wettercharakter
Wetter: klar
Temperatur
23 °C
Feuchtigkeit
94 %
Wind
5 km/hWindrichtung: Ost
Luftdruck
1019 hPa
Messzeit: 9. Dezember 2019, 21.00Datenquelle: METAR

Weitere Messstationen in der Nähe

Messstation Temperatur Entfernung
Miami 25 °C 29 km
Miami 23 °C 47 km
Hollywood 24 °C 58 km
Miami 21 °C 61 km
Fort Lauderdale 25 °C 68 km
Fort Lauderdale 24 °C 82 km
Pompano Beach 25 °C 89 km

Wind

Windrichtung Böen Mittelwind
° km/h km/h
1575856800 21.00 20.00 - 21.00 80° 10
1575860400 22.00 21.00 - 22.00 80° 10
1575864000 23.00 22.00 - 23.00 90° 5
1575867600 0.00 23.00 - 0.00 70° 5
1575871200 1.00 0.00 - 1.00 80° 5
1575874800 2.00 1.00 - 2.00 80° 5
1575878400 3.00 2.00 - 3.00 0
1575882000 4.00 3.00 - 4.00 340° 5
1575885600 5.00 4.00 - 5.00 0
1575889200 6.00 5.00 - 6.00 0
1575892800 7.00 6.00 - 7.00 50° 5
1575896400 8.00 7.00 - 8.00 0
1575900000 9.00 8.00 - 9.00 100° 10
1575903600 10.00 9.00 - 10.00 100° 20
1575907200 11.00 10.00 - 11.00
1575910800 12.00 11.00 - 12.00
1575914400 13.00 12.00 - 13.00
1575918000 14.00 13.00 - 14.00
1575921600 15.00 14.00 - 15.00 80° 20
1575925200 16.00 15.00 - 16.00 90° 15
1575928800 17.00 16.00 - 17.00 90° 10
1575932400 18.00 17.00 - 18.00 80° 10
1575936000 19.00 18.00 - 19.00 90° 10
1575939600 20.00 19.00 - 20.00

Ihre Wetterstation

Fehlt Ihre Wetterstation auf unserem Portal?

Schreiben Sie an network@meteonews.ch

Klima

Wann ist es am wärmsten? Wann regnet es am wenigsten? Unsere Klimadaten geben Auskunft.